createdAt,value
2022-08-03T00:07:00.903Z,100789.22
2022-08-03T00:10:11.546Z,100799.91
2022-08-03T00:13:24.578Z,100798.63
2022-08-03T00:16:34.100Z,100798.38
2022-08-03T00:19:28.372Z,100795.34
2022-08-03T00:22:05.958Z,100796.41
2022-08-03T00:24:54.658Z,100801.81
2022-08-03T00:27:25.619Z,100792.72
2022-08-03T00:30:00.294Z,100802.72
2022-08-03T00:32:44.972Z,100789.09
2022-08-03T00:35:50.677Z,100799.09
2022-08-03T00:38:46.726Z,100793.31
2022-08-03T00:42:30.330Z,100804.72
2022-08-03T00:45:36.870Z,100798.72
2022-08-03T00:48:36.347Z,100797.06
2022-08-03T00:51:04.780Z,100805.66
2022-08-03T00:53:32.992Z,100804.50
2022-08-03T00:56:03.317Z,100798.50
2022-08-03T00:58:31.398Z,100801.19
2022-08-03T01:01:07.471Z,100794.16
2022-08-03T01:03:35.670Z,100798.97
2022-08-03T01:06:18.919Z,100797.31
2022-08-03T01:08:57.745Z,100810.34
2022-08-03T01:12:00.968Z,100806.94
2022-08-03T01:14:56.077Z,100814.34
2022-08-03T01:17:34.612Z,100805.63
2022-08-03T01:20:14.833Z,100812.56
2022-08-03T01:23:01.242Z,100808.91
2022-08-03T01:25:54.266Z,100801.97
2022-08-03T01:28:48.321Z,100813.81
2022-08-03T01:31:21.541Z,100810.88
2022-08-03T01:33:57.303Z,100809.25
2022-08-03T01:36:30.364Z,100807.59
2022-08-03T01:39:09.809Z,100812.66
2022-08-03T01:41:44.781Z,100810.25
2022-08-03T01:44:29.358Z,100803.66
2022-08-03T01:47:00.733Z,100812.59
2022-08-03T01:49:32.503Z,100810.72
2022-08-03T01:52:05.521Z,100802.84
2022-08-03T01:54:40.906Z,100798.84
2022-08-03T01:57:10.095Z,100796.63
2022-08-03T01:59:42.502Z,100800.03
2022-08-03T02:02:33.123Z,100795.06
2022-08-03T02:05:10.743Z,100787.06
2022-08-03T02:07:42.164Z,100795.41
2022-08-03T02:10:12.084Z,100788.81
2022-08-03T02:12:46.111Z,100792.13
2022-08-03T02:15:16.357Z,100788.94
2022-08-03T02:17:47.473Z,100786.50
2022-08-03T02:20:16.399Z,100790.94
2022-08-03T02:22:46.732Z,100783.88
2022-08-03T02:25:17.341Z,100778.47
2022-08-03T02:27:55.349Z,100789.72
2022-08-03T02:30:31.335Z,100778.81
2022-08-03T02:33:01.568Z,100783.00
2022-08-03T02:35:36.105Z,100784.06
2022-08-03T02:38:11.935Z,100791.34
2022-08-03T02:40:43.563Z,100793.19
2022-08-03T02:43:17.427Z,100785.09
2022-08-03T02:45:49.526Z,100788.19
2022-08-03T02:48:23.746Z,100791.09
2022-08-03T02:50:54.263Z,100794.41
2022-08-03T02:53:24.127Z,100790.28
2022-08-03T02:55:54.141Z,100795.81
2022-08-03T02:58:24.978Z,100797.31
2022-08-03T03:00:54.413Z,100794.25
2022-08-03T03:03:23.502Z,100794.25
2022-08-03T03:05:57.754Z,100796.28
2022-08-03T03:08:28.381Z,100801.69
2022-08-03T03:11:02.288Z,100792.53
2022-08-03T03:13:32.038Z,100809.16
2022-08-03T03:16:05.098Z,100801.69
2022-08-03T03:18:34.749Z,100808.03
2022-08-03T03:21:05.105Z,100805.47
2022-08-03T03:23:37.594Z,100808.09
2022-08-03T03:26:07.587Z,100806.78
2022-08-03T03:28:42.687Z,100794.03
2022-08-03T03:31:11.781Z,100809.44
2022-08-03T03:33:39.887Z,100809.09
2022-08-03T03:36:11.143Z,100815.84
2022-08-03T03:38:41.757Z,100810.09
2022-08-03T03:41:10.494Z,100811.97
2022-08-03T03:43:38.314Z,100808.59
2022-08-03T03:46:06.688Z,100812.47
2022-08-03T03:48:34.593Z,100818.13
2022-08-03T03:51:04.770Z,100814.47
2022-08-03T03:53:32.595Z,100810.94
2022-08-03T03:56:04.167Z,100813.16
2022-08-03T03:58:33.152Z,100813.75
2022-08-03T04:01:04.668Z,100820.34
2022-08-03T04:03:33.585Z,100823.88
2022-08-03T04:06:21.102Z,100823.63
2022-08-03T04:09:07.832Z,100818.09
2022-08-03T04:11:40.804Z,100826.66
2022-08-03T04:14:13.686Z,100829.50
2022-08-03T04:16:51.725Z,100824.44
2022-08-03T04:19:45.289Z,100831.88
2022-08-03T04:22:53.858Z,100833.03
2022-08-03T04:25:29.341Z,100843.16
2022-08-03T04:28:30.451Z,100840.56
2022-08-03T04:31:01.458Z,100846.53
2022-08-03T04:33:32.729Z,100852.41
2022-08-03T04:36:03.732Z,100849.47
2022-08-03T04:38:36.924Z,100849.00
2022-08-03T04:41:05.256Z,100856.50
2022-08-03T04:43:34.410Z,100852.13
2022-08-03T04:46:04.160Z,100859.16
2022-08-03T04:48:33.108Z,100857.47
2022-08-03T04:51:04.790Z,100851.81
2022-08-03T04:53:33.914Z,100859.13
2022-08-03T04:56:08.221Z,100853.03
2022-08-03T04:58:36.256Z,100852.19
2022-08-03T05:01:04.166Z,100855.56
2022-08-03T05:03:38.319Z,100856.50
2022-08-03T05:06:10.938Z,100854.59
2022-08-03T05:09:49.900Z,100854.50
2022-08-03T05:12:19.749Z,100865.91
2022-08-03T05:14:47.760Z,100863.91
2022-08-03T05:17:15.688Z,100868.13
2022-08-03T05:19:45.776Z,100864.22
2022-08-03T05:22:14.238Z,100875.47
2022-08-03T05:24:45.082Z,100873.44
2022-08-03T05:27:19.320Z,100878.22
2022-08-03T05:29:51.072Z,100876.25
2022-08-03T05:32:19.641Z,100882.69
2022-08-03T05:34:48.776Z,100885.03
2022-08-03T05:37:16.619Z,100879.13
2022-08-03T05:39:44.410Z,100886.50
2022-08-03T05:42:15.313Z,100883.06
2022-08-03T05:44:43.736Z,100880.53
2022-08-03T05:47:11.781Z,100890.19
2022-08-03T05:49:40.569Z,100885.84
2022-08-03T05:52:12.653Z,100890.44
2022-08-03T05:54:56.097Z,100889.50
2022-08-03T05:57:26.859Z,100888.81
2022-08-03T05:59:58.431Z,100889.91
2022-08-03T06:02:27.832Z,100893.75
2022-08-03T06:04:55.616Z,100893.84
2022-08-03T06:07:23.510Z,100901.03
2022-08-03T06:10:35.007Z,100893.56
2022-08-03T06:12:41.411Z,100904.66
2022-08-03T06:15:11.428Z,100900.38
2022-08-03T06:17:49.649Z,100903.44
2022-08-03T06:20:19.830Z,100904.59
2022-08-03T06:22:51.042Z,100900.91
2022-08-03T06:25:21.219Z,100900.47
2022-08-03T06:27:49.623Z,100908.19
2022-08-03T06:30:21.001Z,100907.47
2022-08-03T06:32:51.651Z,100908.63
2022-08-03T06:35:20.248Z,100904.06
2022-08-03T06:37:50.624Z,100901.28
2022-08-03T06:40:21.607Z,100912.41
2022-08-03T06:42:49.830Z,100905.81
2022-08-03T06:45:18.741Z,100909.91
2022-08-03T06:47:46.572Z,100905.44
2022-08-03T06:50:16.886Z,100903.75
2022-08-03T06:52:46.392Z,100902.94
2022-08-03T06:55:14.303Z,100908.03
2022-08-03T06:57:42.562Z,100902.03
2022-08-03T07:00:12.851Z,100909.34
2022-08-03T07:02:41.340Z,100904.69
2022-08-03T07:05:10.658Z,100907.97
2022-08-03T07:07:38.998Z,100912.06
2022-08-03T07:10:08.109Z,100916.41
2022-08-03T07:12:38.951Z,100915.44
2022-08-03T07:15:55.509Z,100917.16
2022-08-03T07:18:27.555Z,100916.19
2022-08-03T07:21:02.792Z,100915.09
2022-08-03T07:23:31.266Z,100916.00
2022-08-03T07:25:59.214Z,100916.28
2022-08-03T07:28:27.388Z,100920.09
2022-08-03T07:30:59.577Z,100913.19
2022-08-03T07:33:27.836Z,100918.75
2022-08-03T07:36:04.584Z,100913.56
2022-08-03T07:38:32.623Z,100923.88
2022-08-03T07:41:00.583Z,100919.03
2022-08-03T07:43:32.743Z,100924.78
2022-08-03T07:46:00.796Z,100928.56
2022-08-03T07:48:28.766Z,100926.09
2022-08-03T07:50:56.892Z,100922.88
2022-08-03T07:53:25.253Z,100925.75
2022-08-03T07:56:18.110Z,100924.72
2022-08-03T07:58:46.447Z,100920.72
2022-08-03T08:01:18.587Z,100923.50
2022-08-03T08:03:53.250Z,100921.69
2022-08-03T08:06:25.681Z,100928.56
2022-08-03T08:08:55.436Z,100929.94
2022-08-03T08:11:26.544Z,100927.59
2022-08-03T08:13:56.447Z,100932.38
2022-08-03T08:16:28.020Z,100930.47
2022-08-03T08:18:59.725Z,100919.94
2022-08-03T08:22:01.922Z,100925.72
2022-08-03T08:24:41.109Z,100930.94
2022-08-03T08:27:12.672Z,100926.91
2022-08-03T08:29:47.565Z,100935.09
2022-08-03T08:32:22.191Z,100923.94
2022-08-03T08:34:50.961Z,100937.03
2022-08-03T08:37:19.005Z,100928.31
2022-08-03T08:39:46.801Z,100926.09
2022-08-03T08:42:17.937Z,100931.31
2022-08-03T08:44:46.826Z,100927.78
2022-08-03T08:47:19.356Z,100932.69
2022-08-03T08:50:08.955Z,100933.25
2022-08-03T08:53:04.106Z,100922.84
2022-08-03T08:55:58.378Z,100922.56
2022-08-03T08:58:23.667Z,100923.63
2022-08-03T09:00:52.134Z,100935.34
2022-08-03T09:03:29.258Z,100926.63
2022-08-03T09:06:03.823Z,100924.16
2022-08-03T09:08:35.153Z,100925.53
2022-08-03T09:11:08.678Z,100933.72
2022-08-03T09:13:40.795Z,100926.31
2022-08-03T09:16:18.998Z,100926.81
2022-08-03T09:18:50.711Z,100927.06
2022-08-03T09:21:34.223Z,100921.81
2022-08-03T09:24:13.000Z,100927.06
2022-08-03T09:26:57.379Z,100919.09
2022-08-03T09:29:42.795Z,100923.13
2022-08-03T09:32:38.668Z,100920.13
2022-08-03T09:38:28.892Z,100918.91
2022-08-03T09:41:00.308Z,100929.19
2022-08-03T09:43:30.062Z,100916.50
2022-08-03T09:46:09.534Z,100918.66
2022-08-03T09:48:37.647Z,100922.59
2022-08-03T09:51:13.152Z,100922.13
2022-08-03T09:54:16.334Z,100918.63
2022-08-03T09:56:47.880Z,100916.81
2022-08-03T09:59:25.154Z,100917.41
2022-08-03T10:01:55.962Z,100910.44
2022-08-03T10:04:24.541Z,100903.66
2022-08-03T10:07:23.473Z,100903.41
2022-08-03T10:09:58.157Z,100901.03
2022-08-03T10:12:48.537Z,100906.44
2022-08-03T10:16:22.239Z,100910.50
2022-08-03T10:18:05.482Z,100903.91
2022-08-03T10:20:40.359Z,100903.44
2022-08-03T10:23:11.796Z,100902.72
2022-08-03T10:25:45.286Z,100914.31
2022-08-03T10:28:18.217Z,100912.75
2022-08-03T10:31:21.128Z,100912.13
2022-08-03T10:33:58.842Z,100913.28
2022-08-03T10:36:32.583Z,100919.97
2022-08-03T10:39:15.943Z,100911.47
2022-08-03T10:41:50.846Z,100912.50
2022-08-03T10:47:16.303Z,100906.03
2022-08-03T10:49:48.009Z,100900.13
2022-08-03T10:52:31.944Z,100903.03
2022-08-03T10:55:21.390Z,100905.50
2022-08-03T10:57:58.884Z,100907.56
2022-08-03T11:00:30.530Z,100902.53
2022-08-03T11:03:05.003Z,100897.25
2022-08-03T11:05:39.034Z,100899.19
2022-08-03T11:08:39.555Z,100899.47
2022-08-03T11:11:24.276Z,100898.66
2022-08-03T11:14:22.278Z,100900.53
2022-08-03T11:16:53.636Z,100893.78
2022-08-03T11:19:28.425Z,100895.84
2022-08-03T11:21:58.724Z,100888.66
2022-08-03T11:24:54.483Z,100883.16
2022-08-03T11:27:32.807Z,100880.75
2022-08-03T11:30:27.663Z,100878.50
2022-08-03T11:32:59.828Z,100885.47
2022-08-03T11:35:36.708Z,100880.25
2022-08-03T11:38:07.563Z,100883.22
2022-08-03T11:40:39.173Z,100880.16
2022-08-03T11:47:55.831Z,100871.88
2022-08-03T11:50:24.780Z,100869.34
2022-08-03T11:52:55.930Z,100866.28
2022-08-03T11:55:36.408Z,100870.22
2022-08-03T11:59:16.631Z,100865.19
2022-08-03T12:00:53.395Z,100860.22
2022-08-03T12:03:21.517Z,100860.81
2022-08-03T12:05:56.490Z,100867.47
2022-08-03T12:08:26.624Z,100868.81
2022-08-03T12:11:00.162Z,100858.66
2022-08-03T12:14:45.593Z,100860.00
2022-08-03T12:16:35.308Z,100857.63
2022-08-03T12:19:07.131Z,100852.50
2022-08-03T12:21:35.133Z,100851.94
2022-08-03T12:24:07.859Z,100853.19
2022-08-03T12:26:56.819Z,100853.84
2022-08-03T12:29:30.623Z,100859.31
2022-08-03T12:31:59.286Z,100852.16
2022-08-03T12:34:43.021Z,100848.34
2022-08-03T12:37:28.676Z,100860.91
2022-08-03T12:40:09.522Z,100842.78
2022-08-03T12:42:56.595Z,100845.03
2022-08-03T12:45:27.155Z,100860.06
2022-08-03T12:48:08.549Z,100851.97
2022-08-03T12:50:53.666Z,100845.72
2022-08-03T12:53:30.475Z,100842.31
2022-08-03T12:56:05.625Z,100832.53
2022-08-03T12:58:36.998Z,100838.31
2022-08-03T13:01:09.878Z,100842.63
2022-08-03T13:03:57.566Z,100837.16
2022-08-03T13:06:30.117Z,100824.41
2022-08-03T13:09:08.521Z,100830.00
2022-08-03T13:12:08.239Z,100826.59
2022-08-03T13:14:37.408Z,100822.00
2022-08-03T13:17:08.909Z,100823.94
2022-08-03T13:19:38.289Z,100815.94
2022-08-03T13:22:23.739Z,100813.78
2022-08-03T13:35:22.940Z,100814.00
2022-08-03T13:38:32.243Z,100815.50
2022-08-03T13:41:19.315Z,100816.53
2022-08-03T13:44:29.106Z,100811.88
2022-08-03T13:47:02.256Z,100812.41
2022-08-03T13:49:40.452Z,100806.22
2022-08-03T13:52:09.133Z,100805.00
2022-08-03T13:54:37.388Z,100806.19
2022-08-03T13:58:11.429Z,100805.59
2022-08-03T14:00:29.695Z,100812.09
2022-08-03T14:03:14.919Z,100802.31
2022-08-03T14:05:44.545Z,100799.34
2022-08-03T14:08:37.388Z,100800.97
2022-08-03T14:11:06.759Z,100799.94
2022-08-03T14:13:34.872Z,100795.88
2022-08-03T14:16:53.241Z,100801.69
2022-08-03T14:19:25.025Z,100805.34
2022-08-03T14:22:06.453Z,100793.03
2022-08-03T14:24:35.939Z,100791.91
2022-08-03T14:27:08.827Z,100791.66
2022-08-03T14:29:40.867Z,100785.72
2022-08-03T14:32:10.025Z,100787.91
2022-08-03T14:35:05.945Z,100783.25
2022-08-03T14:37:38.665Z,100782.44
2022-08-03T14:40:11.647Z,100783.84
2022-08-03T14:42:39.870Z,100772.09
2022-08-03T14:45:19.720Z,100774.28
2022-08-03T14:50:10.471Z,100775.16
2022-08-03T14:50:43.146Z,100777.34
2022-08-03T14:53:17.765Z,100777.34
2022-08-03T14:55:50.660Z,100769.41
2022-08-03T14:58:23.635Z,100775.91
2022-08-03T15:00:53.217Z,100772.09
2022-08-03T15:03:25.763Z,100777.31
2022-08-03T15:05:57.693Z,100768.59
2022-08-03T15:08:26.423Z,100765.31
2022-08-03T15:10:54.975Z,100765.31
2022-08-03T15:13:23.003Z,100776.56
2022-08-03T15:15:51.943Z,100776.59
2022-08-03T15:18:23.892Z,100775.47
2022-08-03T15:20:51.940Z,100768.38
2022-08-03T15:23:20.048Z,100769.19
2022-08-03T15:26:03.845Z,100771.94
2022-08-03T15:28:37.398Z,100769.19
2022-08-03T15:31:06.720Z,100761.31
2022-08-03T15:33:35.252Z,100765.44
2022-08-03T15:36:04.407Z,100760.28
2022-08-03T15:38:32.339Z,100765.78
2022-08-03T15:41:00.429Z,100749.41
2022-08-03T15:43:28.347Z,100762.84
2022-08-03T15:47:11.106Z,100759.88
2022-08-03T15:49:42.431Z,100752.25
2022-08-03T15:52:10.528Z,100746.22
2022-08-03T15:55:03.770Z,100740.72
2022-08-03T15:57:31.829Z,100741.00
2022-08-03T15:59:59.765Z,100742.97
2022-08-03T16:02:27.749Z,100737.25
2022-08-03T16:04:55.648Z,100731.56
2022-08-03T16:07:42.016Z,100737.31
2022-08-03T16:10:34.704Z,100729.41
2022-08-03T16:13:02.946Z,100728.91
2022-08-03T16:15:30.757Z,100723.44
2022-08-03T16:17:58.766Z,100727.00
2022-08-03T16:20:31.496Z,100723.97
2022-08-03T16:23:10.416Z,100719.59
2022-08-03T16:25:40.777Z,100721.75
2022-08-03T16:28:13.737Z,100719.81
2022-08-03T16:30:44.235Z,100720.88
2022-08-03T16:33:17.279Z,100721.38
2022-08-03T16:35:47.100Z,100718.03
2022-08-03T16:38:40.488Z,100716.91
2022-08-03T16:41:09.656Z,100716.59
2022-08-03T16:43:37.950Z,100716.06
2022-08-03T16:46:07.561Z,100715.56
2022-08-03T16:48:35.752Z,100715.25
2022-08-03T16:51:03.762Z,100715.56
2022-08-03T16:53:51.632Z,100713.09
2022-08-03T16:56:54.420Z,100704.94
2022-08-03T16:59:36.156Z,100715.13
2022-08-03T17:02:10.117Z,100718.69
2022-08-03T17:04:40.330Z,100718.72
2022-08-03T17:07:18.679Z,100717.66
2022-08-03T17:09:48.169Z,100723.16
2022-08-03T17:12:17.529Z,100721.00
2022-08-03T17:14:46.349Z,100718.84
2022-08-03T17:17:24.845Z,100724.34
2022-08-03T17:19:54.289Z,100729.50
2022-08-03T17:22:31.291Z,100738.81
2022-08-03T17:25:07.948Z,100734.72
2022-08-03T17:28:49.398Z,100738.88
2022-08-03T17:30:46.119Z,100738.91
2022-08-03T17:33:20.621Z,100741.09
2022-08-03T17:35:53.019Z,100745.81
2022-08-03T17:38:25.238Z,100745.56
2022-08-03T17:41:00.358Z,100750.72
2022-08-03T17:44:14.378Z,100755.38
2022-08-03T17:46:29.422Z,100754.56
2022-08-03T17:48:59.654Z,100754.88
2022-08-03T17:51:36.661Z,100767.97
2022-08-03T17:55:56.041Z,100769.34
2022-08-03T17:58:02.218Z,100773.44
2022-08-03T18:00:52.319Z,100770.72
2022-08-03T18:03:57.841Z,100777.81
2022-08-03T18:06:39.206Z,100775.13
2022-08-03T18:10:05.926Z,100779.47
2022-08-03T18:12:23.369Z,100777.03
2022-08-03T18:15:08.494Z,100780.25
2022-08-03T18:17:55.887Z,100784.63
2022-08-03T18:20:42.397Z,100783.81
2022-08-03T18:23:24.625Z,100788.69
2022-08-03T18:26:12.050Z,100786.22
2022-08-03T18:28:40.835Z,100784.88
2022-08-03T18:31:32.938Z,100796.81
2022-08-03T18:34:20.038Z,100801.75
2022-08-03T18:36:55.977Z,100797.91
2022-08-03T18:39:24.048Z,100804.97
2022-08-03T18:41:52.666Z,100809.06
2022-08-03T18:44:46.437Z,100815.56
2022-08-03T18:47:51.003Z,100822.34
2022-08-03T18:50:35.721Z,100819.56
2022-08-03T18:53:21.091Z,100820.03
2022-08-03T18:56:04.913Z,100832.50
2022-08-03T18:58:41.733Z,100824.88
2022-08-03T19:04:31.597Z,100832.75
2022-08-03T19:07:07.867Z,100825.69
2022-08-03T19:09:56.570Z,100837.38
2022-08-03T19:12:37.857Z,100832.72
2022-08-03T19:15:12.667Z,100828.06
2022-08-03T19:17:53.164Z,100830.22
2022-08-03T19:20:24.967Z,100828.84
2022-08-03T19:22:57.201Z,100832.38
2022-08-03T19:25:35.108Z,100829.09
2022-08-03T19:28:06.212Z,100831.53
2022-08-03T19:30:39.083Z,100830.38
2022-08-03T19:33:09.716Z,100829.78
2022-08-03T19:35:55.022Z,100832.22
2022-08-03T19:38:29.048Z,100827.81
2022-08-03T19:41:04.234Z,100833.25
2022-08-03T19:43:49.507Z,100838.13
2022-08-03T19:46:30.721Z,100835.63
2022-08-03T19:49:10.561Z,100826.09
2022-08-03T19:54:54.029Z,100832.88
2022-08-03T19:57:27.372Z,100829.59
2022-08-03T20:00:03.326Z,100831.19
2022-08-03T20:02:36.691Z,100827.91
2022-08-03T20:05:05.966Z,100832.53
2022-08-03T20:07:49.023Z,100839.28
2022-08-03T20:10:18.150Z,100831.13
2022-08-03T20:15:53.326Z,100834.03
2022-08-03T20:18:22.181Z,100839.44
2022-08-03T20:20:52.469Z,100831.75
2022-08-03T20:23:21.297Z,100825.34
2022-08-03T20:26:00.382Z,100827.78
2022-08-03T20:31:23.945Z,100832.63
2022-08-03T20:33:59.828Z,100837.19
2022-08-03T20:36:27.909Z,100837.41
2022-08-03T20:38:57.979Z,100826.75
2022-08-03T20:41:26.253Z,100834.31
2022-08-03T20:43:57.483Z,100840.31
2022-08-03T20:46:31.916Z,100837.84
2022-08-03T20:49:05.648Z,100822.59
2022-08-03T20:51:49.647Z,100833.91
2022-08-03T20:54:29.235Z,100835.47
2022-08-03T20:57:03.781Z,100834.66
2022-08-03T20:59:50.534Z,100830.84
2022-08-03T21:02:29.732Z,100841.91
2022-08-03T21:05:12.552Z,100840.28
2022-08-03T21:13:09.823Z,100833.69
2022-08-03T21:13:09.931Z,100830.03
2022-08-03T21:13:18.567Z,100846.44
2022-08-03T21:16:02.560Z,100837.50
2022-08-03T21:18:44.598Z,100851.66
2022-08-03T21:21:16.599Z,100862.50
2022-08-03T21:23:49.620Z,100848.59
2022-08-03T21:26:19.944Z,100855.91
2022-08-03T21:28:53.019Z,100860.53
2022-08-03T21:31:25.472Z,100855.38
2022-08-03T21:33:56.074Z,100861.03
2022-08-03T21:36:26.864Z,100853.72
2022-08-03T21:38:57.004Z,100860.22
2022-08-03T21:41:30.691Z,100853.72
2022-08-03T21:43:59.190Z,100863.16
2022-08-03T21:46:36.800Z,100855.28
2022-08-03T21:50:05.806Z,100869.94
2022-08-03T21:51:59.805Z,100870.19
2022-08-03T21:54:41.570Z,100867.13
2022-08-03T21:57:17.759Z,100868.66
2022-08-03T21:59:54.264Z,100876.25
2022-08-03T22:02:31.332Z,100869.44
2022-08-03T22:05:00.058Z,100878.66
2022-08-03T22:07:29.497Z,100878.06
2022-08-03T22:09:59.711Z,100872.88
2022-08-03T22:12:30.841Z,100868.72
2022-08-03T22:15:02.108Z,100863.22
2022-08-03T22:17:55.105Z,100869.16
2022-08-03T22:20:22.290Z,100868.84
2022-08-03T22:22:56.088Z,100870.97
2022-08-03T22:25:31.349Z,100872.03
2022-08-03T22:28:06.888Z,100871.97
2022-08-03T22:30:35.293Z,100870.56
2022-08-03T22:33:05.370Z,100866.44
2022-08-03T22:35:46.446Z,100873.44
2022-08-03T22:38:18.323Z,100867.22
2022-08-03T22:40:50.025Z,100873.13
2022-08-03T22:43:21.758Z,100868.75
2022-08-03T22:46:08.999Z,100866.31
2022-08-03T22:48:41.306Z,100862.19
2022-08-03T22:51:10.386Z,100866.22
2022-08-03T22:53:39.305Z,100864.81
2022-08-03T22:56:07.129Z,100869.41
2022-08-03T22:58:34.927Z,100865.31
2022-08-03T23:01:06.493Z,100865.00
2022-08-03T23:04:00.228Z,100860.03
2022-08-03T23:06:35.087Z,100863.47
2022-08-03T23:09:09.409Z,100861.75
2022-08-03T23:11:45.504Z,100870.34
2022-08-03T23:14:16.438Z,100866.00
2022-08-03T23:16:45.824Z,100861.91
2022-08-03T23:19:25.309Z,100852.38
2022-08-03T23:22:03.279Z,100853.34
2022-08-03T23:24:39.290Z,100851.63
2022-08-03T23:27:08.925Z,100858.94
2022-08-03T23:29:38.257Z,100861.88
2022-08-03T23:32:07.049Z,100854.34
2022-08-03T23:34:57.264Z,100856.94
2022-08-03T23:37:26.263Z,100858.84
2022-08-03T23:39:57.074Z,100852.50
2022-08-03T23:42:26.414Z,100852.19
2022-08-03T23:44:59.487Z,100857.59
2022-08-03T23:47:45.946Z,100848.06
2022-08-03T23:50:17.535Z,100852.88
2022-08-03T23:52:58.210Z,100857.50
2022-08-03T23:55:26.059Z,100847.41
2022-08-03T23:58:18.206Z,100842.22
